sensor_id;sensor_type;location;lat;lon;timestamp;P1;durP1;ratioP1;P2;durP2;ratioP2
64520;SDS011;50896;46.714;17.322;2023-01-29T00:02:06;28.42;;;13.68;;
64520;SDS011;50896;46.714;17.322;2023-01-29T00:04:33;30.75;;;14.15;;
64520;SDS011;50896;46.714;17.322;2023-01-29T00:07:00;30.63;;;13.50;;
64520;SDS011;50896;46.714;17.322;2023-01-29T00:09:27;31.25;;;14.48;;
64520;SDS011;50896;46.714;17.322;2023-01-29T00:11:54;34.22;;;15.27;;
64520;SDS011;50896;46.714;17.322;2023-01-29T00:14:20;35.53;;;15.02;;
64520;SDS011;50896;46.714;17.322;2023-01-29T00:16:47;29.38;;;13.77;;
64520;SDS011;50896;46.714;17.322;2023-01-29T00:19:14;31.30;;;13.98;;
64520;SDS011;50896;46.714;17.322;2023-01-29T00:21:41;34.40;;;15.63;;
64520;SDS011;50896;46.714;17.322;2023-01-29T00:24:08;31.17;;;14.10;;
64520;SDS011;50896;46.714;17.322;2023-01-29T00:26:36;31.33;;;14.23;;
64520;SDS011;50896;46.714;17.322;2023-01-29T00:29:04;38.42;;;15.35;;
64520;SDS011;50896;46.714;17.322;2023-01-29T00:31:31;33.35;;;14.02;;
64520;SDS011;50896;46.714;17.322;2023-01-29T00:33:58;37.85;;;14.90;;
64520;SDS011;50896;46.714;17.322;2023-01-29T00:36:25;32.30;;;14.75;;
64520;SDS011;50896;46.714;17.322;2023-01-29T00:38:56;32.38;;;15.20;;
64520;SDS011;50896;46.714;17.322;2023-01-29T00:41:31;34.80;;;14.35;;
64520;SDS011;50896;46.714;17.322;2023-01-29T00:44:17;33.15;;;14.23;;
64520;SDS011;50896;46.714;17.322;2023-01-29T00:47:07;30.63;;;14.40;;
64520;SDS011;50896;46.714;17.322;2023-01-29T00:49:56;33.22;;;14.07;;
64520;SDS011;50896;46.714;17.322;2023-01-29T00:52:23;31.90;;;14.55;;
64520;SDS011;50896;46.714;17.322;2023-01-29T00:54:50;29.23;;;14.02;;
64520;SDS011;50896;46.714;17.322;2023-01-29T00:57:18;26.83;;;13.50;;
64520;SDS011;50896;46.714;17.322;2023-01-29T00:59:46;31.77;;;13.00;;
64520;SDS011;50896;46.714;17.322;2023-01-29T01:02:13;28.15;;;13.30;;
64520;SDS011;50896;46.714;17.322;2023-01-29T01:04:58;28.02;;;13.43;;
64520;SDS011;50896;46.714;17.322;2023-01-29T01:07:28;35.00;;;14.33;;
64520;SDS011;50896;46.714;17.322;2023-01-29T01:09:55;32.95;;;13.48;;
64520;SDS011;50896;46.714;17.322;2023-01-29T01:12:41;27.98;;;13.32;;
64520;SDS011;50896;46.714;17.322;2023-01-29T01:15:09;32.72;;;13.20;;
64520;SDS011;50896;46.714;17.322;2023-01-29T01:17:36;32.10;;;13.38;;
64520;SDS011;50896;46.714;17.322;2023-01-29T01:20:03;30.63;;;13.52;;
64520;SDS011;50896;46.714;17.322;2023-01-29T01:22:30;33.92;;;15.15;;
64520;SDS011;50896;46.714;17.322;2023-01-29T01:24:57;29.27;;;12.85;;
64520;SDS011;50896;46.714;17.322;2023-01-29T01:27:24;30.90;;;13.82;;
64520;SDS011;50896;46.714;17.322;2023-01-29T01:29:51;29.65;;;12.50;;
64520;SDS011;50896;46.714;17.322;2023-01-29T01:32:18;32.80;;;12.93;;
64520;SDS011;50896;46.714;17.322;2023-01-29T01:34:44;26.20;;;12.48;;
64520;SDS011;50896;46.714;17.322;2023-01-29T01:37:12;29.75;;;13.15;;
64520;SDS011;50896;46.714;17.322;2023-01-29T01:39:39;28.42;;;12.02;;
64520;SDS011;50896;46.714;17.322;2023-01-29T01:42:11;29.55;;;12.77;;
64520;SDS011;50896;46.714;17.322;2023-01-29T01:47:45;28.60;;;12.68;;
64520;SDS011;50896;46.714;17.322;2023-01-29T01:50:15;27.38;;;12.20;;
64520;SDS011;50896;46.714;17.322;2023-01-29T01:52:50;26.90;;;12.35;;
64520;SDS011;50896;46.714;17.322;2023-01-29T01:55:22;26.35;;;10.98;;
64520;SDS011;50896;46.714;17.322;2023-01-29T01:57:52;24.80;;;10.73;;
64520;SDS011;50896;46.714;17.322;2023-01-29T02:00:25;21.38;;;9.35;;
64520;SDS011;50896;46.714;17.322;2023-01-29T02:02:52;18.85;;;9.50;;
64520;SDS011;50896;46.714;17.322;2023-01-29T02:05:38;15.38;;;7.35;;
64520;SDS011;50896;46.714;17.322;2023-01-29T02:08:36;18.23;;;7.05;;
64520;SDS011;50896;46.714;17.322;2023-01-29T02:11:29;13.95;;;6.70;;
64520;SDS011;50896;46.714;17.322;2023-01-29T02:13:56;16.65;;;7.22;;
64520;SDS011;50896;46.714;17.322;2023-01-29T02:16:24;14.45;;;7.13;;
64520;SDS011;50896;46.714;17.322;2023-01-29T02:18:51;13.77;;;6.57;;
64520;SDS011;50896;46.714;17.322;2023-01-29T02:51:04;12.23;;;5.65;;
64520;SDS011;50896;46.714;17.322;2023-01-29T02:53:47;10.02;;;5.00;;
64520;SDS011;50896;46.714;17.322;2023-01-29T02:56:25;9.77;;;5.30;;
64520;SDS011;50896;46.714;17.322;2023-01-29T02:59:11;10.40;;;4.43;;
64520;SDS011;50896;46.714;17.322;2023-01-29T03:02:25;8.55;;;4.43;;
64520;SDS011;50896;46.714;17.322;2023-01-29T03:04:38;8.95;;;4.32;;
64520;SDS011;50896;46.714;17.322;2023-01-29T03:07:16;8.07;;;4.53;;
64520;SDS011;50896;46.714;17.322;2023-01-29T03:10:14;8.45;;;4.45;;
64520;SDS011;50896;46.714;17.322;2023-01-29T03:12:46;7.70;;;3.85;;
64520;SDS011;50896;46.714;17.322;2023-01-29T03:15:22;6.80;;;4.03;;
64520;SDS011;50896;46.714;17.322;2023-01-29T03:18:14;6.72;;;3.95;;
64520;SDS011;50896;46.714;17.322;2023-01-29T03:20:52;6.18;;;3.55;;
64520;SDS011;50896;46.714;17.322;2023-01-29T03:23:28;5.50;;;3.08;;
64520;SDS011;50896;46.714;17.322;2023-01-29T03:26:17;7.10;;;3.67;;
64520;SDS011;50896;46.714;17.322;2023-01-29T03:29:05;6.00;;;3.53;;
64520;SDS011;50896;46.714;17.322;2023-01-29T03:31:54;6.65;;;3.50;;
64520;SDS011;50896;46.714;17.322;2023-01-29T03:34:40;6.00;;;3.13;;
64520;SDS011;50896;46.714;17.322;2023-01-29T03:37:25;5.80;;;3.15;;
64520;SDS011;50896;46.714;17.322;2023-01-29T03:39:56;9.60;;;3.60;;
64520;SDS011;50896;46.714;17.322;2023-01-29T03:45:34;6.00;;;3.53;;
64520;SDS011;50896;46.714;17.322;2023-01-29T03:50:50;5.53;;;3.47;;
64520;SDS011;50896;46.714;17.322;2023-01-29T03:53:45;6.82;;;3.25;;
64520;SDS011;50896;46.714;17.322;2023-01-29T03:56:30;6.97;;;3.67;;
64520;SDS011;50896;46.714;17.322;2023-01-29T03:59:11;6.85;;;3.58;;
64520;SDS011;50896;46.714;17.322;2023-01-29T04:02:08;6.80;;;3.65;;
64520;SDS011;50896;46.714;17.322;2023-01-29T04:04:45;5.45;;;3.85;;
64520;SDS011;50896;46.714;17.322;2023-01-29T04:07:19;6.80;;;4.00;;
64520;SDS011;50896;46.714;17.322;2023-01-29T04:10:06;6.50;;;3.90;;
64520;SDS011;50896;46.714;17.322;2023-01-29T04:12:52;8.18;;;4.00;;
64520;SDS011;50896;46.714;17.322;2023-01-29T04:15:24;7.60;;;3.92;;
64520;SDS011;50896;46.714;17.322;2023-01-29T04:17:55;5.90;;;3.70;;
64520;SDS011;50896;46.714;17.322;2023-01-29T04:20:34;6.05;;;4.15;;
64520;SDS011;50896;46.714;17.322;2023-01-29T04:23:04;7.20;;;3.63;;
64520;SDS011;50896;46.714;17.322;2023-01-29T04:25:42;6.38;;;3.53;;
64520;SDS011;50896;46.714;17.322;2023-01-29T04:28:16;6.85;;;4.00;;
64520;SDS011;50896;46.714;17.322;2023-01-29T04:30:59;6.13;;;4.10;;
64520;SDS011;50896;46.714;17.322;2023-01-29T04:39:25;5.43;;;3.72;;
64520;SDS011;50896;46.714;17.322;2023-01-29T04:41:56;5.15;;;3.38;;
64520;SDS011;50896;46.714;17.322;2023-01-29T04:44:42;6.28;;;3.70;;
64520;SDS011;50896;46.714;17.322;2023-01-29T04:47:20;6.97;;;3.80;;
64520;SDS011;50896;46.714;17.322;2023-01-29T04:50:01;6.38;;;4.13;;
64520;SDS011;50896;46.714;17.322;2023-01-29T04:58:39;9.13;;;3.83;;
64520;SDS011;50896;46.714;17.322;2023-01-29T05:01:03;6.88;;;4.32;;
64520;SDS011;50896;46.714;17.322;2023-01-29T05:03:32;6.72;;;4.05;;
64520;SDS011;50896;46.714;17.322;2023-01-29T05:06:01;7.97;;;3.83;;
64520;SDS011;50896;46.714;17.322;2023-01-29T05:08:30;7.18;;;4.20;;
64520;SDS011;50896;46.714;17.322;2023-01-29T05:10:59;8.05;;;4.88;;
64520;SDS011;50896;46.714;17.322;2023-01-29T05:13:27;8.10;;;4.30;;
64520;SDS011;50896;46.714;17.322;2023-01-29T05:15:56;8.13;;;4.30;;
64520;SDS011;50896;46.714;17.322;2023-01-29T05:18:30;7.18;;;4.10;;
64520;SDS011;50896;46.714;17.322;2023-01-29T05:20:58;7.25;;;4.45;;
64520;SDS011;50896;46.714;17.322;2023-01-29T05:23:29;8.30;;;4.38;;
64520;SDS011;50896;46.714;17.322;2023-01-29T05:25:56;6.32;;;4.03;;
64520;SDS011;50896;46.714;17.322;2023-01-29T05:28:23;8.00;;;4.20;;
64520;SDS011;50896;46.714;17.322;2023-01-29T05:30:51;6.50;;;3.95;;
64520;SDS011;50896;46.714;17.322;2023-01-29T05:33:27;7.30;;;3.78;;
64520;SDS011;50896;46.714;17.322;2023-01-29T05:35:57;5.65;;;3.92;;
64520;SDS011;50896;46.714;17.322;2023-01-29T05:38:25;7.25;;;3.97;;
64520;SDS011;50896;46.714;17.322;2023-01-29T05:40:52;7.07;;;3.80;;
64520;SDS011;50896;46.714;17.322;2023-01-29T05:43:20;6.63;;;4.10;;
64520;SDS011;50896;46.714;17.322;2023-01-29T05:48:19;6.30;;;4.15;;
64520;SDS011;50896;46.714;17.322;2023-01-29T05:50:45;7.53;;;4.30;;
64520;SDS011;50896;46.714;17.322;2023-01-29T05:53:12;7.68;;;4.20;;
64520;SDS011;50896;46.714;17.322;2023-01-29T05:55:42;5.95;;;4.05;;
64520;SDS011;50896;46.714;17.322;2023-01-29T05:58:10;7.78;;;4.38;;
64520;SDS011;50896;46.714;17.322;2023-01-29T06:00:37;7.15;;;4.22;;
64520;SDS011;50896;46.714;17.322;2023-01-29T06:03:04;7.40;;;4.03;;
64520;SDS011;50896;46.714;17.322;2023-01-29T06:05:31;8.15;;;4.20;;
64520;SDS011;50896;46.714;17.322;2023-01-29T06:07:58;8.38;;;4.50;;
64520;SDS011;50896;46.714;17.322;2023-01-29T06:10:25;6.60;;;4.35;;
64520;SDS011;50896;46.714;17.322;2023-01-29T06:12:52;6.55;;;4.10;;
64520;SDS011;50896;46.714;17.322;2023-01-29T06:15:18;8.20;;;4.72;;
64520;SDS011;50896;46.714;17.322;2023-01-29T06:17:45;6.13;;;4.18;;
64520;SDS011;50896;46.714;17.322;2023-01-29T06:20:12;7.18;;;4.00;;
64520;SDS011;50896;46.714;17.322;2023-01-29T06:22:39;7.50;;;4.50;;
64520;SDS011;50896;46.714;17.322;2023-01-29T06:25:06;6.75;;;3.88;;
64520;SDS011;50896;46.714;17.322;2023-01-29T06:27:34;6.63;;;3.97;;
64520;SDS011;50896;46.714;17.322;2023-01-29T06:30:01;7.75;;;4.43;;
64520;SDS011;50896;46.714;17.322;2023-01-29T06:32:32;6.68;;;4.10;;
64520;SDS011;50896;46.714;17.322;2023-01-29T06:34:59;7.88;;;4.40;;
64520;SDS011;50896;46.714;17.322;2023-01-29T06:37:26;6.70;;;4.00;;
64520;SDS011;50896;46.714;17.322;2023-01-29T06:39:52;6.82;;;4.35;;
64520;SDS011;50896;46.714;17.322;2023-01-29T06:42:19;7.38;;;4.53;;
64520;SDS011;50896;46.714;17.322;2023-01-29T06:44:53;7.97;;;4.43;;
64520;SDS011;50896;46.714;17.322;2023-01-29T06:47:22;7.13;;;4.55;;
64520;SDS011;50896;46.714;17.322;2023-01-29T06:49:49;6.60;;;4.60;;
64520;SDS011;50896;46.714;17.322;2023-01-29T06:52:16;6.25;;;4.60;;
64520;SDS011;50896;46.714;17.322;2023-01-29T06:54:43;8.82;;;4.90;;
64520;SDS011;50896;46.714;17.322;2023-01-29T06:57:10;8.07;;;4.43;;
64520;SDS011;50896;46.714;17.322;2023-01-29T06:59:36;8.02;;;5.22;;
64520;SDS011;50896;46.714;17.322;2023-01-29T07:02:03;10.18;;;5.18;;
64520;SDS011;50896;46.714;17.322;2023-01-29T07:04:30;8.18;;;4.80;;
64520;SDS011;50896;46.714;17.322;2023-01-29T07:06:58;7.05;;;4.47;;
64520;SDS011;50896;46.714;17.322;2023-01-29T07:09:25;6.82;;;4.57;;
64520;SDS011;50896;46.714;17.322;2023-01-29T07:11:52;9.52;;;4.85;;
64520;SDS011;50896;46.714;17.322;2023-01-29T07:14:19;8.75;;;5.28;;
64520;SDS011;50896;46.714;17.322;2023-01-29T07:16:45;10.25;;;5.20;;
64520;SDS011;50896;46.714;17.322;2023-01-29T07:19:12;8.02;;;5.15;;
64520;SDS011;50896;46.714;17.322;2023-01-29T07:21:39;8.50;;;4.90;;
64520;SDS011;50896;46.714;17.322;2023-01-29T07:24:06;9.10;;;5.25;;
64520;SDS011;50896;46.714;17.322;2023-01-29T07:26:33;8.90;;;5.38;;
64520;SDS011;50896;46.714;17.322;2023-01-29T07:29:00;8.40;;;5.45;;
64520;SDS011;50896;46.714;17.322;2023-01-29T07:31:27;7.22;;;4.45;;
64520;SDS011;50896;46.714;17.322;2023-01-29T07:33:54;7.93;;;4.85;;
64520;SDS011;50896;46.714;17.322;2023-01-29T07:36:21;10.07;;;5.30;;
64520;SDS011;50896;46.714;17.322;2023-01-29T07:38:49;7.85;;;4.75;;
64520;SDS011;50896;46.714;17.322;2023-01-29T07:41:16;8.00;;;4.68;;
64520;SDS011;50896;46.714;17.322;2023-01-29T07:43:44;6.88;;;4.53;;
64520;SDS011;50896;46.714;17.322;2023-01-29T07:46:11;8.50;;;4.43;;
64520;SDS011;50896;46.714;17.322;2023-01-29T07:48:38;7.70;;;4.80;;
64520;SDS011;50896;46.714;17.322;2023-01-29T07:51:05;7.43;;;4.95;;
64520;SDS011;50896;46.714;17.322;2023-01-29T07:53:32;7.32;;;5.05;;
64520;SDS011;50896;46.714;17.322;2023-01-29T07:55:59;7.93;;;5.13;;
64520;SDS011;50896;46.714;17.322;2023-01-29T07:58:26;7.72;;;4.93;;
64520;SDS011;50896;46.714;17.322;2023-01-29T08:00:52;6.93;;;4.90;;
64520;SDS011;50896;46.714;17.322;2023-01-29T08:03:19;6.90;;;4.22;;
64520;SDS011;50896;46.714;17.322;2023-01-29T08:05:46;8.73;;;4.88;;
64520;SDS011;50896;46.714;17.322;2023-01-29T08:08:13;7.13;;;4.68;;
64520;SDS011;50896;46.714;17.322;2023-01-29T08:10:40;7.90;;;5.05;;
64520;SDS011;50896;46.714;17.322;2023-01-29T08:13:07;7.35;;;4.40;;
64520;SDS011;50896;46.714;17.322;2023-01-29T08:15:35;7.65;;;4.40;;
64520;SDS011;50896;46.714;17.322;2023-01-29T08:18:04;8.25;;;5.05;;
64520;SDS011;50896;46.714;17.322;2023-01-29T08:20:32;8.13;;;5.13;;
64520;SDS011;50896;46.714;17.322;2023-01-29T08:23:03;9.02;;;5.30;;
64520;SDS011;50896;46.714;17.322;2023-01-29T08:25:32;10.38;;;6.07;;
64520;SDS011;50896;46.714;17.322;2023-01-29T08:28:00;8.25;;;5.60;;
64520;SDS011;50896;46.714;17.322;2023-01-29T08:30:28;8.85;;;5.05;;
64520;SDS011;50896;46.714;17.322;2023-01-29T08:32:56;8.18;;;5.03;;
64520;SDS011;50896;46.714;17.322;2023-01-29T08:35:23;8.63;;;5.45;;
64520;SDS011;50896;46.714;17.322;2023-01-29T08:37:54;10.48;;;5.82;;
64520;SDS011;50896;46.714;17.322;2023-01-29T08:40:25;7.97;;;4.88;;
64520;SDS011;50896;46.714;17.322;2023-01-29T08:43:00;10.43;;;6.13;;
64520;SDS011;50896;46.714;17.322;2023-01-29T08:45:32;8.73;;;5.07;;
64520;SDS011;50896;46.714;17.322;2023-01-29T08:48:00;9.40;;;5.75;;
64520;SDS011;50896;46.714;17.322;2023-01-29T08:50:27;10.65;;;5.68;;
64520;SDS011;50896;46.714;17.322;2023-01-29T08:52:56;9.00;;;6.22;;
64520;SDS011;50896;46.714;17.322;2023-01-29T08:55:25;10.23;;;6.10;;
64520;SDS011;50896;46.714;17.322;2023-01-29T08:57:52;10.02;;;6.30;;
64520;SDS011;50896;46.714;17.322;2023-01-29T09:00:19;12.50;;;6.50;;
64520;SDS011;50896;46.714;17.322;2023-01-29T09:02:46;22.67;;;12.02;;
64520;SDS011;50896;46.714;17.322;2023-01-29T09:05:13;14.35;;;8.95;;
64520;SDS011;50896;46.714;17.322;2023-01-29T09:07:41;19.48;;;12.05;;
64520;SDS011;50896;46.714;17.322;2023-01-29T09:10:08;20.42;;;12.27;;
64520;SDS011;50896;46.714;17.322;2023-01-29T09:12:35;16.52;;;12.73;;
64520;SDS011;50896;46.714;17.322;2023-01-29T09:15:02;12.10;;;8.43;;
64520;SDS011;50896;46.714;17.322;2023-01-29T09:17:29;12.45;;;7.80;;
64520;SDS011;50896;46.714;17.322;2023-01-29T09:19:56;14.40;;;7.60;;
64520;SDS011;50896;46.714;17.322;2023-01-29T09:22:24;11.18;;;7.65;;
64520;SDS011;50896;46.714;17.322;2023-01-29T09:24:50;10.80;;;6.90;;
64520;SDS011;50896;46.714;17.322;2023-01-29T09:27:17;10.23;;;6.22;;
64520;SDS011;50896;46.714;17.322;2023-01-29T09:29:44;11.50;;;6.80;;
64520;SDS011;50896;46.714;17.322;2023-01-29T09:32:11;9.18;;;5.90;;
64520;SDS011;50896;46.714;17.322;2023-01-29T09:34:38;9.98;;;5.97;;
64520;SDS011;50896;46.714;17.322;2023-01-29T09:37:04;11.30;;;6.18;;
64520;SDS011;50896;46.714;17.322;2023-01-29T09:39:32;8.97;;;5.57;;
64520;SDS011;50896;46.714;17.322;2023-01-29T09:47:33;11.73;;;7.03;;
64520;SDS011;50896;46.714;17.322;2023-01-29T09:50:04;9.52;;;5.93;;
64520;SDS011;50896;46.714;17.322;2023-01-29T09:52:42;8.52;;;5.63;;
64520;SDS011;50896;46.714;17.322;2023-01-29T09:55:32;10.48;;;6.25;;
64520;SDS011;50896;46.714;17.322;2023-01-29T09:58:38;9.05;;;5.55;;
64520;SDS011;50896;46.714;17.322;2023-01-29T10:06:35;9.52;;;5.97;;
64520;SDS011;50896;46.714;17.322;2023-01-29T10:17:42;9.98;;;5.70;;
64520;SDS011;50896;46.714;17.322;2023-01-29T10:23:00;10.00;;;5.68;;
64520;SDS011;50896;46.714;17.322;2023-01-29T10:25:38;8.38;;;5.28;;
64520;SDS011;50896;46.714;17.322;2023-01-29T10:28:19;8.60;;;5.63;;
64520;SDS011;50896;46.714;17.322;2023-01-29T10:30:54;9.90;;;6.00;;
64520;SDS011;50896;46.714;17.322;2023-01-29T10:33:48;10.63;;;6.10;;
64520;SDS011;50896;46.714;17.322;2023-01-29T10:36:37;8.45;;;5.60;;
64520;SDS011;50896;46.714;17.322;2023-01-29T10:39:18;11.60;;;6.32;;
64520;SDS011;50896;46.714;17.322;2023-01-29T10:58:42;11.23;;;5.50;;
64520;SDS011;50896;46.714;17.322;2023-01-29T11:01:12;9.70;;;5.65;;
64520;SDS011;50896;46.714;17.322;2023-01-29T11:03:39;10.70;;;6.38;;
64520;SDS011;50896;46.714;17.322;2023-01-29T11:11:53;10.23;;;5.85;;
64520;SDS011;50896;46.714;17.322;2023-01-29T11:14:23;11.85;;;5.70;;
64520;SDS011;50896;46.714;17.322;2023-01-29T11:16:55;10.63;;;6.40;;
64520;SDS011;50896;46.714;17.322;2023-01-29T11:19:39;9.45;;;5.75;;
64520;SDS011;50896;46.714;17.322;2023-01-29T11:22:15;9.20;;;5.68;;
64520;SDS011;50896;46.714;17.322;2023-01-29T11:24:45;9.52;;;5.85;;
64520;SDS011;50896;46.714;17.322;2023-01-29T11:27:22;11.77;;;6.45;;
64520;SDS011;50896;46.714;17.322;2023-01-29T11:29:52;9.50;;;5.80;;
64520;SDS011;50896;46.714;17.322;2023-01-29T11:37:31;9.68;;;5.68;;
64520;SDS011;50896;46.714;17.322;2023-01-29T11:39:58;10.60;;;5.50;;
64520;SDS011;50896;46.714;17.322;2023-01-29T11:42:26;9.20;;;5.50;;
64520;SDS011;50896;46.714;17.322;2023-01-29T11:44:56;10.07;;;5.78;;
64520;SDS011;50896;46.714;17.322;2023-01-29T11:47:27;9.60;;;5.80;;
64520;SDS011;50896;46.714;17.322;2023-01-29T11:49:59;7.63;;;5.13;;
64520;SDS011;50896;46.714;17.322;2023-01-29T11:52:35;8.23;;;5.05;;
64520;SDS011;50896;46.714;17.322;2023-01-29T11:55:13;8.57;;;5.38;;
64520;SDS011;50896;46.714;17.322;2023-01-29T11:57:59;7.43;;;5.38;;
64520;SDS011;50896;46.714;17.322;2023-01-29T12:00:33;7.10;;;5.28;;
64520;SDS011;50896;46.714;17.322;2023-01-29T12:03:06;8.85;;;5.60;;
64520;SDS011;50896;46.714;17.322;2023-01-29T12:05:38;10.38;;;5.38;;
64520;SDS011;50896;46.714;17.322;2023-01-29T12:08:13;11.75;;;5.22;;
64520;SDS011;50896;46.714;17.322;2023-01-29T12:10:42;8.38;;;5.40;;
64520;SDS011;50896;46.714;17.322;2023-01-29T12:15:37;9.57;;;5.50;;
64520;SDS011;50896;46.714;17.322;2023-01-29T12:18:07;8.65;;;5.57;;
64520;SDS011;50896;46.714;17.322;2023-01-29T12:20:41;10.25;;;6.15;;
64520;SDS011;50896;46.714;17.322;2023-01-29T12:25:43;8.48;;;5.72;;
64520;SDS011;50896;46.714;17.322;2023-01-29T12:36:27;21.08;;;8.07;;
64520;SDS011;50896;46.714;17.322;2023-01-29T12:39:02;10.77;;;6.60;;
64520;SDS011;50896;46.714;17.322;2023-01-29T12:41:31;11.00;;;6.15;;
64520;SDS011;50896;46.714;17.322;2023-01-29T12:47:34;10.55;;;6.72;;
64520;SDS011;50896;46.714;17.322;2023-01-29T12:50:19;10.25;;;6.15;;
64520;SDS011;50896;46.714;17.322;2023-01-29T12:52:54;11.85;;;6.18;;
64520;SDS011;50896;46.714;17.322;2023-01-29T12:55:28;12.32;;;6.57;;
64520;SDS011;50896;46.714;17.322;2023-01-29T12:58:15;9.43;;;5.95;;
64520;SDS011;50896;46.714;17.322;2023-01-29T13:03:22;11.75;;;6.93;;
64520;SDS011;50896;46.714;17.322;2023-01-29T13:05:56;10.45;;;6.45;;
64520;SDS011;50896;46.714;17.322;2023-01-29T13:08:29;10.77;;;6.82;;
64520;SDS011;50896;46.714;17.322;2023-01-29T13:11:03;11.48;;;6.93;;
64520;SDS011;50896;46.714;17.322;2023-01-29T13:13:36;12.02;;;6.53;;
64520;SDS011;50896;46.714;17.322;2023-01-29T13:16:11;13.35;;;7.18;;
64520;SDS011;50896;46.714;17.322;2023-01-29T13:19:00;11.40;;;6.72;;
64520;SDS011;50896;46.714;17.322;2023-01-29T13:21:35;12.00;;;6.35;;
64520;SDS011;50896;46.714;17.322;2023-01-29T13:24:08;11.25;;;7.03;;
64520;SDS011;50896;46.714;17.322;2023-01-29T13:26:39;12.07;;;7.32;;
64520;SDS011;50896;46.714;17.322;2023-01-29T13:29:21;11.25;;;6.78;;
64520;SDS011;50896;46.714;17.322;2023-01-29T13:31:59;12.25;;;6.85;;
64520;SDS011;50896;46.714;17.322;2023-01-29T13:34:33;12.40;;;7.00;;
64520;SDS011;50896;46.714;17.322;2023-01-29T13:37:09;15.10;;;7.18;;
64520;SDS011;50896;46.714;17.322;2023-01-29T13:39:49;13.52;;;7.88;;
64520;SDS011;50896;46.714;17.322;2023-01-29T13:42:19;14.00;;;7.82;;
64520;SDS011;50896;46.714;17.322;2023-01-29T13:44:52;13.57;;;7.95;;
64520;SDS011;50896;46.714;17.322;2023-01-29T13:47:29;12.85;;;7.38;;
64520;SDS011;50896;46.714;17.322;2023-01-29T13:49:59;10.93;;;7.07;;
64520;SDS011;50896;46.714;17.322;2023-01-29T13:52:44;12.38;;;7.38;;
64520;SDS011;50896;46.714;17.322;2023-01-29T13:55:20;15.32;;;7.95;;
64520;SDS011;50896;46.714;17.322;2023-01-29T13:57:52;13.73;;;8.40;;
64520;SDS011;50896;46.714;17.322;2023-01-29T14:13:58;13.98;;;8.25;;
64520;SDS011;50896;46.714;17.322;2023-01-29T14:16:26;14.30;;;8.27;;
64520;SDS011;50896;46.714;17.322;2023-01-29T14:19:01;12.82;;;7.85;;
64520;SDS011;50896;46.714;17.322;2023-01-29T14:21:31;12.98;;;7.68;;
64520;SDS011;50896;46.714;17.322;2023-01-29T14:24:19;14.18;;;8.30;;
64520;SDS011;50896;46.714;17.322;2023-01-29T14:26:52;12.80;;;7.57;;
64520;SDS011;50896;46.714;17.322;2023-01-29T14:29:27;12.73;;;7.72;;
64520;SDS011;50896;46.714;17.322;2023-01-29T14:35:22;14.23;;;8.23;;
64520;SDS011;50896;46.714;17.322;2023-01-29T14:37:37;13.57;;;8.48;;
64520;SDS011;50896;46.714;17.322;2023-01-29T14:45:31;12.88;;;7.47;;
64520;SDS011;50896;46.714;17.322;2023-01-29T14:50:47;13.00;;;8.10;;
64520;SDS011;50896;46.714;17.322;2023-01-29T14:56:14;14.25;;;8.13;;
64520;SDS011;50896;46.714;17.322;2023-01-29T14:58:45;15.13;;;8.35;;
64520;SDS011;50896;46.714;17.322;2023-01-29T15:03:49;13.40;;;8.40;;
64520;SDS011;50896;46.714;17.322;2023-01-29T15:09:31;14.70;;;8.60;;
64520;SDS011;50896;46.714;17.322;2023-01-29T15:15:04;16.20;;;7.78;;
64520;SDS011;50896;46.714;17.322;2023-01-29T15:20:31;12.20;;;7.60;;
64520;SDS011;50896;46.714;17.322;2023-01-29T15:23:02;14.10;;;8.23;;
64520;SDS011;50896;46.714;17.322;2023-01-29T15:25:49;14.55;;;8.50;;
64520;SDS011;50896;46.714;17.322;2023-01-29T15:28:18;14.37;;;8.37;;
64520;SDS011;50896;46.714;17.322;2023-01-29T15:30:46;15.73;;;8.98;;
64520;SDS011;50896;46.714;17.322;2023-01-29T15:33:19;14.52;;;8.52;;
64520;SDS011;50896;46.714;17.322;2023-01-29T15:35:47;14.23;;;8.70;;
64520;SDS011;50896;46.714;17.322;2023-01-29T15:38:19;14.07;;;8.48;;
64520;SDS011;50896;46.714;17.322;2023-01-29T15:43:29;13.38;;;7.80;;
64520;SDS011;50896;46.714;17.322;2023-01-29T15:45:58;16.00;;;9.07;;
64520;SDS011;50896;46.714;17.322;2023-01-29T15:48:29;13.93;;;8.20;;
64520;SDS011;50896;46.714;17.322;2023-01-29T15:51:00;16.42;;;8.77;;
64520;SDS011;50896;46.714;17.322;2023-01-29T15:53:34;22.02;;;11.30;;
64520;SDS011;50896;46.714;17.322;2023-01-29T15:56:07;24.35;;;13.45;;
64520;SDS011;50896;46.714;17.322;2023-01-29T15:58:36;24.63;;;12.55;;
64520;SDS011;50896;46.714;17.322;2023-01-29T16:01:04;17.77;;;9.32;;
64520;SDS011;50896;46.714;17.322;2023-01-29T16:03:32;17.83;;;10.65;;
64520;SDS011;50896;46.714;17.322;2023-01-29T16:06:01;20.35;;;10.73;;
64520;SDS011;50896;46.714;17.322;2023-01-29T16:08:28;22.17;;;11.90;;
64520;SDS011;50896;46.714;17.322;2023-01-29T16:10:56;25.63;;;13.05;;
64520;SDS011;50896;46.714;17.322;2023-01-29T16:13:29;26.40;;;12.75;;
64520;SDS011;50896;46.714;17.322;2023-01-29T16:16:00;26.55;;;13.10;;
64520;SDS011;50896;46.714;17.322;2023-01-29T16:18:34;24.05;;;12.65;;
64520;SDS011;50896;46.714;17.322;2023-01-29T16:23:44;19.10;;;10.25;;
64520;SDS011;50896;46.714;17.322;2023-01-29T16:26:19;25.73;;;13.57;;
64520;SDS011;50896;46.714;17.322;2023-01-29T16:28:50;23.20;;;11.85;;
64520;SDS011;50896;46.714;17.322;2023-01-29T16:31:27;19.40;;;10.80;;
64520;SDS011;50896;46.714;17.322;2023-01-29T16:33:57;15.97;;;9.23;;
64520;SDS011;50896;46.714;17.322;2023-01-29T16:36:25;17.40;;;8.80;;
64520;SDS011;50896;46.714;17.322;2023-01-29T16:38:59;18.02;;;10.18;;
64520;SDS011;50896;46.714;17.322;2023-01-29T16:41:31;16.10;;;9.35;;
64520;SDS011;50896;46.714;17.322;2023-01-29T16:44:02;20.38;;;11.57;;
64520;SDS011;50896;46.714;17.322;2023-01-29T16:46:46;22.50;;;11.35;;
64520;SDS011;50896;46.714;17.322;2023-01-29T16:49:57;25.85;;;12.50;;
64520;SDS011;50896;46.714;17.322;2023-01-29T16:54:43;22.05;;;11.77;;
64520;SDS011;50896;46.714;17.322;2023-01-29T16:57:14;20.88;;;11.60;;
64520;SDS011;50896;46.714;17.322;2023-01-29T16:59:45;24.98;;;12.48;;
64520;SDS011;50896;46.714;17.322;2023-01-29T17:04:49;25.40;;;12.40;;
64520;SDS011;50896;46.714;17.322;2023-01-29T17:07:17;17.95;;;10.60;;
64520;SDS011;50896;46.714;17.322;2023-01-29T17:09:48;19.02;;;10.50;;
64520;SDS011;50896;46.714;17.322;2023-01-29T17:12:19;17.08;;;10.05;;
64520;SDS011;50896;46.714;17.322;2023-01-29T17:14:56;16.45;;;9.45;;
64520;SDS011;50896;46.714;17.322;2023-01-29T17:17:29;16.27;;;9.82;;
64520;SDS011;50896;46.714;17.322;2023-01-29T17:20:05;18.10;;;10.27;;
64520;SDS011;50896;46.714;17.322;2023-01-29T17:22:38;17.92;;;10.10;;
64520;SDS011;50896;46.714;17.322;2023-01-29T17:25:04;17.58;;;9.95;;
64520;SDS011;50896;46.714;17.322;2023-01-29T17:27:32;15.13;;;9.02;;
64520;SDS011;50896;46.714;17.322;2023-01-29T17:29:58;17.05;;;10.88;;
64520;SDS011;50896;46.714;17.322;2023-01-29T17:32:26;16.92;;;9.88;;
64520;SDS011;50896;46.714;17.322;2023-01-29T17:35:11;15.40;;;9.82;;
64520;SDS011;50896;46.714;17.322;2023-01-29T17:37:39;18.07;;;10.60;;
64520;SDS011;50896;46.714;17.322;2023-01-29T17:42:51;15.95;;;9.70;;
64520;SDS011;50896;46.714;17.322;2023-01-29T17:45:18;16.25;;;9.90;;
64520;SDS011;50896;46.714;17.322;2023-01-29T17:47:45;15.35;;;9.32;;